createdAt,value
2018-11-28T00:00:20.412Z,0.51
2018-11-28T00:02:49.810Z,0.49
2018-11-28T00:05:17.938Z,0.56
2018-11-28T00:07:46.060Z,0.52
2018-11-28T00:10:14.807Z,0.55
2018-11-28T00:12:42.929Z,0.51
2018-11-28T00:15:13.026Z,0.47
2018-11-28T00:17:41.111Z,0.40
2018-11-28T00:20:13.406Z,0.34
2018-11-28T00:22:41.659Z,0.38
2018-11-28T00:25:10.607Z,0.36
2018-11-28T00:27:38.755Z,0.47
2018-11-28T00:30:11.764Z,0.55
2018-11-28T00:32:39.872Z,0.42
2018-11-28T00:35:09.625Z,0.35
2018-11-28T00:37:37.757Z,0.39
2018-11-28T00:40:06.903Z,0.38
2018-11-28T00:42:35.004Z,0.26
2018-11-28T00:45:03.100Z,0.18
2018-11-28T00:47:31.192Z,0.11
2018-11-28T00:49:59.285Z,0.16
2018-11-28T00:52:27.390Z,0.15
2018-11-28T00:54:55.527Z,0.10
2018-11-28T00:57:23.617Z,0.02
2018-11-28T00:59:51.715Z,0.10
2018-11-28T01:02:19.827Z,0.07
2018-11-28T01:04:47.950Z,0.12
2018-11-28T01:07:16.075Z,0.20
2018-11-28T01:09:44.168Z,0.20
2018-11-28T01:12:12.257Z,0.00
2018-11-28T01:14:40.328Z,0.08
2018-11-28T01:17:08.426Z,0.18
2018-11-28T01:19:36.514Z,0.06
2018-11-28T01:22:04.685Z,0.04
2018-11-28T01:24:32.827Z,0.03
2018-11-28T01:27:01.010Z,0.06
2018-11-28T01:29:29.116Z,0.06
2018-11-28T01:31:57.191Z,0.00
2018-11-28T01:34:25.264Z,0.04
2018-11-28T01:36:53.339Z,-0.01
2018-11-28T01:39:21.444Z,-0.11
2018-11-28T01:41:49.539Z,-0.01
2018-11-28T01:44:17.619Z,-0.03
2018-11-28T01:46:45.732Z,-0.07
2018-11-28T01:49:13.851Z,-0.14
2018-11-28T01:51:41.986Z,-0.13
2018-11-28T01:54:10.079Z,-0.24
2018-11-28T01:56:38.746Z,-0.22
2018-11-28T01:59:06.822Z,-0.31
2018-11-28T02:01:34.881Z,-0.27
2018-11-28T02:04:02.934Z,-0.32
2018-11-28T02:06:30.989Z,-0.27
2018-11-28T02:08:59.070Z,-0.22
2018-11-28T02:11:27.122Z,-0.23
2018-11-28T02:13:55.194Z,-0.35
2018-11-28T02:16:23.255Z,-0.31
2018-11-28T02:18:51.387Z,-0.31
2018-11-28T02:21:19.415Z,-0.30
2018-11-28T02:23:47.475Z,-0.34
2018-11-28T02:26:15.542Z,-0.39
2018-11-28T02:28:43.622Z,-0.37
2018-11-28T02:31:11.690Z,-0.55
2018-11-28T02:33:40.606Z,-0.47
2018-11-28T02:36:15.293Z,-0.55
2018-11-28T02:38:43.354Z,-0.53
2018-11-28T02:41:11.443Z,-0.61
2018-11-28T02:48:36.931Z,-0.61
2018-11-28T02:51:05.850Z,-0.61
2018-11-28T02:53:33.911Z,-0.62
2018-11-28T02:56:01.992Z,-0.70
2018-11-28T02:58:30.075Z,-0.67
2018-11-28T03:00:58.157Z,-0.65
2018-11-28T03:06:06.546Z,-0.67
2018-11-28T03:08:34.640Z,-0.57
2018-11-28T03:11:02.725Z,-0.62
2018-11-28T03:13:30.800Z,-0.57
2018-11-28T03:16:00.450Z,-0.62
2018-11-28T03:18:28.827Z,-0.71
2018-11-28T03:20:56.901Z,-0.66
2018-11-28T03:23:24.961Z,-0.74
2018-11-28T03:25:52.995Z,-0.67
2018-11-28T03:28:21.069Z,-0.76
2018-11-28T03:30:49.143Z,-0.81
2018-11-28T03:33:17.195Z,-0.86
2018-11-28T03:35:45.237Z,-0.75
2018-11-28T03:38:13.309Z,-0.82
2018-11-28T03:40:41.365Z,-0.84
2018-11-28T03:43:09.429Z,-0.81
2018-11-28T03:45:37.691Z,-0.75
2018-11-28T03:48:05.894Z,-0.89
2018-11-28T03:50:34.002Z,-0.84
2018-11-28T03:53:02.078Z,-0.80
2018-11-28T03:55:30.141Z,-0.78
2018-11-28T03:57:58.407Z,-0.80
2018-11-28T04:00:26.490Z,-0.79
2018-11-28T04:02:54.574Z,-0.77
2018-11-28T04:05:22.634Z,-0.79
2018-11-28T04:07:50.694Z,-0.79
2018-11-28T04:10:18.770Z,-0.81
2018-11-28T04:12:46.862Z,-0.88
2018-11-28T04:15:16.244Z,-0.94
2018-11-28T04:17:44.291Z,-1.00
2018-11-28T04:20:13.497Z,-1.00
2018-11-28T04:22:41.568Z,-0.97
2018-11-28T04:25:10.394Z,-0.89
2018-11-28T04:27:38.485Z,-0.83
2018-11-28T04:30:10.739Z,-0.91
2018-11-28T04:32:38.808Z,-0.98
2018-11-28T04:35:08.630Z,-1.06
2018-11-28T04:37:36.704Z,-1.03
2018-11-28T04:40:08.035Z,-1.04
2018-11-28T04:42:36.223Z,-1.08
2018-11-28T04:45:04.403Z,-0.99
2018-11-28T04:47:32.463Z,-0.99
2018-11-28T04:50:00.530Z,-1.10
2018-11-28T04:52:28.606Z,-1.13
2018-11-28T04:54:56.653Z,-1.14
2018-11-28T04:57:24.756Z,-1.20
2018-11-28T04:59:52.810Z,-1.23
2018-11-28T05:02:20.951Z,-1.17
2018-11-28T05:04:49.055Z,-1.14
2018-11-28T05:07:31.951Z,-1.16
2018-11-28T05:10:00.075Z,-1.18
2018-11-28T05:12:28.130Z,-1.21
2018-11-28T05:14:56.206Z,-1.26
2018-11-28T05:17:25.055Z,-1.24
2018-11-28T05:19:53.153Z,-1.18
2018-11-28T05:22:21.258Z,-1.33
2018-11-28T05:24:49.314Z,-1.26
2018-11-28T05:27:17.382Z,-1.31
2018-11-28T05:29:45.458Z,-1.33
2018-11-28T05:32:13.497Z,-1.30
2018-11-28T05:34:41.610Z,-1.21
2018-11-28T05:37:09.718Z,-1.20
2018-11-28T05:39:37.786Z,-1.25
2018-11-28T05:42:05.930Z,-1.26
2018-11-28T05:44:34.241Z,-1.30
2018-11-28T05:47:02.414Z,-1.25
2018-11-28T05:49:30.577Z,-1.30
2018-11-28T05:51:58.723Z,-1.25
2018-11-28T05:54:26.810Z,-1.36
2018-11-28T05:56:54.898Z,-1.35
2018-11-28T05:59:27.365Z,-1.41
2018-11-28T06:01:51.101Z,-1.49
2018-11-28T06:04:19.191Z,-1.40
2018-11-28T06:06:47.281Z,-1.27
2018-11-28T06:09:15.366Z,-1.30
2018-11-28T06:11:43.449Z,-1.33
2018-11-28T06:14:11.510Z,-1.29
2018-11-28T06:16:39.570Z,-1.32
2018-11-28T06:19:07.842Z,-1.29
2018-11-28T06:21:35.928Z,-1.28
2018-11-28T06:24:03.957Z,-1.24
2018-11-28T06:26:32.042Z,-1.25
2018-11-28T06:29:00.102Z,-1.24
2018-11-28T06:31:28.165Z,-1.21
2018-11-28T06:33:56.229Z,-1.22
2018-11-28T06:36:24.312Z,-1.23
2018-11-28T06:38:52.374Z,-1.30
2018-11-28T06:41:20.461Z,-1.35
2018-11-28T06:43:48.541Z,-1.35
2018-11-28T06:46:16.621Z,-1.36
2018-11-28T06:48:44.697Z,-1.37
2018-11-28T06:51:12.777Z,-1.32
2018-11-28T06:53:41.229Z,-1.34
2018-11-28T06:56:09.293Z,-1.33
2018-11-28T06:58:37.328Z,-1.33
2018-11-28T07:01:06.137Z,-1.30
2018-11-28T07:03:34.218Z,-1.28
2018-11-28T07:06:02.326Z,-1.24
2018-11-28T07:08:30.494Z,-1.34
2018-11-28T07:10:58.572Z,-1.26
2018-11-28T07:13:26.621Z,-1.34
2018-11-28T07:15:54.693Z,-1.33
2018-11-28T07:18:34.121Z,-1.32
2018-11-28T07:21:02.194Z,-1.34
2018-11-28T07:23:30.435Z,-1.29
2018-11-28T07:25:58.498Z,-1.29
2018-11-28T07:28:26.557Z,-1.25
2018-11-28T07:30:54.613Z,-1.32
2018-11-28T07:33:22.673Z,-1.25
2018-11-28T07:35:50.792Z,-1.27
2018-11-28T07:38:18.886Z,-1.28
2018-11-28T07:40:46.936Z,-1.32
2018-11-28T07:43:15.307Z,-1.28
2018-11-28T07:45:47.990Z,-1.19
2018-11-28T07:48:16.086Z,-1.29
2018-11-28T07:50:44.219Z,-1.24
2018-11-28T07:53:12.531Z,-1.27
2018-11-28T07:55:40.623Z,-1.14
2018-11-28T07:58:08.690Z,-1.15
2018-11-28T08:00:37.281Z,-1.06
2018-11-28T08:03:07.118Z,-1.07
2018-11-28T08:05:36.106Z,-1.15
2018-11-28T08:08:04.163Z,-1.11
2018-11-28T08:10:32.258Z,-1.02
2018-11-28T08:13:00.457Z,-0.90
2018-11-28T08:15:28.517Z,-0.90
2018-11-28T08:17:56.598Z,-0.91
2018-11-28T08:20:24.671Z,-0.80
2018-11-28T08:22:52.750Z,-0.75
2018-11-28T08:25:20.810Z,-0.82
2018-11-28T08:27:49.930Z,-0.73
2018-11-28T08:30:21.983Z,-0.63
2018-11-28T08:32:50.116Z,-0.66
2018-11-28T08:35:18.249Z,-0.67
2018-11-28T08:37:46.346Z,-0.58
2018-11-28T08:40:15.502Z,-0.59
2018-11-28T08:42:43.714Z,-0.56
2018-11-28T08:45:14.055Z,-0.43
2018-11-28T08:47:42.138Z,-0.48
2018-11-28T08:50:14.599Z,-0.41
2018-11-28T08:52:42.670Z,-0.39
2018-11-28T08:55:12.065Z,-0.41
2018-11-28T08:57:40.118Z,-0.27
2018-11-28T09:00:12.015Z,-0.24
2018-11-28T09:02:40.081Z,-0.16
2018-11-28T09:05:09.009Z,-0.08
2018-11-28T09:07:37.090Z,-0.17
2018-11-28T09:10:07.341Z,-0.06
2018-11-28T09:12:35.450Z,0.00
2018-11-28T09:15:03.533Z,0.02
2018-11-28T09:17:31.582Z,0.08
2018-11-28T09:19:59.642Z,0.17
2018-11-28T09:22:27.749Z,0.13
2018-11-28T09:24:55.830Z,0.08
2018-11-28T09:27:23.873Z,0.16
2018-11-28T09:29:51.910Z,0.17
2018-11-28T09:32:19.961Z,0.24
2018-11-28T09:34:48.037Z,0.25
2018-11-28T09:37:16.121Z,0.26
2018-11-28T09:39:44.195Z,0.18
2018-11-28T09:42:12.305Z,0.21
2018-11-28T09:44:40.357Z,0.20
2018-11-28T09:47:08.446Z,0.18
2018-11-28T09:49:36.495Z,0.39
2018-11-28T09:52:04.846Z,0.29
2018-11-28T09:54:32.902Z,0.30
2018-11-28T09:57:00.946Z,0.31
2018-11-28T09:59:29.099Z,0.24
2018-11-28T10:01:57.261Z,0.17
2018-11-28T10:04:25.339Z,0.24
2018-11-28T10:06:53.380Z,0.24
2018-11-28T10:09:21.458Z,0.27
2018-11-28T10:11:49.513Z,0.27
2018-11-28T10:14:17.601Z,0.27
2018-11-28T10:16:46.227Z,0.28
2018-11-28T10:19:13.754Z,0.24
2018-11-28T10:21:41.793Z,0.29
2018-11-28T10:24:09.871Z,0.35
2018-11-28T10:26:37.913Z,0.33
2018-11-28T10:29:06.317Z,0.31
2018-11-28T10:31:34.474Z,0.38
2018-11-28T10:34:02.538Z,0.41
2018-11-28T10:36:30.596Z,0.37
2018-11-28T10:38:58.681Z,0.33
2018-11-28T10:41:26.795Z,0.26
2018-11-28T10:43:54.878Z,0.35
2018-11-28T10:46:22.951Z,0.33
2018-11-28T10:48:51.061Z,0.39
2018-11-28T10:51:19.114Z,0.38
2018-11-28T10:53:47.169Z,0.40
2018-11-28T10:56:15.242Z,0.34
2018-11-28T10:58:43.371Z,0.35
2018-11-28T11:01:16.731Z,0.45
2018-11-28T11:03:50.066Z,0.57
2018-11-28T11:06:23.434Z,0.46
2018-11-28T11:08:56.947Z,0.34
2018-11-28T11:11:25.994Z,0.32
2018-11-28T11:13:59.573Z,0.37
2018-11-28T11:16:29.659Z,0.34
2018-11-28T11:18:58.401Z,0.41
2018-11-28T11:21:27.006Z,0.48
2018-11-28T11:23:55.072Z,0.29
2018-11-28T11:26:23.179Z,0.33
2018-11-28T11:28:51.309Z,0.30
2018-11-28T11:31:19.362Z,0.34
2018-11-28T11:33:47.457Z,0.46
2018-11-28T11:36:15.558Z,0.39
2018-11-28T11:38:43.636Z,0.34
2018-11-28T11:41:11.751Z,0.36
2018-11-28T11:43:40.580Z,0.44
2018-11-28T11:46:08.642Z,0.52
2018-11-28T11:48:36.754Z,0.53
2018-11-28T11:51:04.869Z,0.49
2018-11-28T11:53:32.982Z,0.59
2018-11-28T11:56:01.130Z,0.40
2018-11-28T11:58:29.201Z,0.42
2018-11-28T12:00:57.250Z,0.48
2018-11-28T12:03:25.302Z,0.53
2018-11-28T12:05:56.718Z,0.42
2018-11-28T12:08:25.803Z,0.54
2018-11-28T12:10:53.894Z,0.43
2018-11-28T12:13:21.983Z,0.41
2018-11-28T12:15:50.942Z,0.39
2018-11-28T12:18:19.028Z,0.42
2018-11-28T12:20:55.291Z,0.50
2018-11-28T12:23:23.651Z,0.48
2018-11-28T12:25:51.773Z,0.55
2018-11-28T12:28:19.864Z,0.59
2018-11-28T12:30:47.913Z,0.51
2018-11-28T12:33:15.967Z,0.55
2018-11-28T12:35:44.023Z,0.54
2018-11-28T12:38:12.143Z,0.63
2018-11-28T12:40:40.219Z,0.55
2018-11-28T12:43:09.287Z,0.54
2018-11-28T12:45:39.443Z,0.57
2018-11-28T12:48:07.516Z,0.66
2018-11-28T12:50:35.578Z,0.52
2018-11-28T12:53:03.755Z,0.49
2018-11-28T12:55:33.573Z,0.49
2018-11-28T12:58:01.658Z,0.47
2018-11-28T13:00:31.238Z,0.54
2018-11-28T13:02:59.302Z,0.52
2018-11-28T13:05:27.567Z,0.61
2018-11-28T13:07:55.861Z,0.65
2018-11-28T13:10:29.486Z,0.51
2018-11-28T13:12:57.585Z,0.49
2018-11-28T13:15:26.385Z,0.62
2018-11-28T13:17:54.448Z,0.58
2018-11-28T13:20:22.647Z,0.67
2018-11-28T13:22:51.845Z,0.62
2018-11-28T13:25:21.349Z,0.52
2018-11-28T13:27:49.426Z,0.66
2018-11-28T13:30:20.253Z,0.64
2018-11-28T13:32:48.963Z,0.71
2018-11-28T13:35:19.870Z,0.58
2018-11-28T13:37:49.822Z,0.61
2018-11-28T13:40:18.582Z,0.61
2018-11-28T13:42:46.661Z,0.59
2018-11-28T13:45:17.817Z,0.75
2018-11-28T13:47:47.407Z,0.76
2018-11-28T13:50:15.481Z,0.73
2018-11-28T13:52:43.587Z,0.72
2018-11-28T13:56:58.430Z,0.69
2018-11-28T13:58:47.142Z,0.65
2018-11-28T14:01:15.398Z,0.61
2018-11-28T14:03:44.018Z,0.68
2018-11-28T14:06:12.113Z,0.62
2018-11-28T14:08:40.489Z,0.71
2018-11-28T14:11:08.633Z,0.72
2018-11-28T14:13:36.849Z,0.67
2018-11-28T14:16:05.274Z,0.63
2018-11-28T14:18:33.362Z,0.59
2018-11-28T14:21:01.458Z,0.63
2018-11-28T14:23:29.593Z,0.69
2018-11-28T14:25:57.651Z,0.52
2018-11-28T14:28:25.767Z,0.54
2018-11-28T14:30:53.856Z,0.62
2018-11-28T14:33:21.954Z,0.61
2018-11-28T14:35:51.116Z,0.56
2018-11-28T14:38:19.670Z,0.56
2018-11-28T14:40:47.742Z,0.53
2018-11-28T14:43:16.000Z,0.49
2018-11-28T14:45:44.101Z,0.46
2018-11-28T14:48:13.026Z,0.42
2018-11-28T14:50:41.105Z,0.40
2018-11-28T14:53:09.245Z,0.44
2018-11-28T14:55:38.924Z,0.41
2018-11-28T14:58:08.694Z,0.38
2018-11-28T15:00:36.833Z,0.40
2018-11-28T15:03:22.958Z,0.40
2018-11-28T15:06:00.353Z,0.38
2018-11-28T15:08:29.011Z,0.33
2018-11-28T15:10:59.389Z,0.31
2018-11-28T15:13:27.490Z,0.26
2018-11-28T15:15:55.541Z,0.31
2018-11-28T15:18:23.593Z,0.25
2018-11-28T15:20:51.665Z,0.22
2018-11-28T15:23:19.714Z,0.22
2018-11-28T15:25:47.769Z,0.26
2018-11-28T15:28:15.857Z,0.32
2018-11-28T15:30:43.967Z,0.31
2018-11-28T15:33:12.050Z,0.13
2018-11-28T15:35:40.359Z,0.17
2018-11-28T15:38:08.808Z,0.13
2018-11-28T15:40:36.925Z,0.18
2018-11-28T15:43:04.967Z,0.21
2018-11-28T15:45:33.026Z,0.20
2018-11-28T15:48:01.159Z,0.13
2018-11-28T15:50:29.221Z,0.09
2018-11-28T15:52:57.262Z,0.14
2018-11-28T15:55:25.358Z,0.11
2018-11-28T15:57:53.437Z,0.12
2018-11-28T16:00:22.453Z,0.17
2018-11-28T16:02:50.392Z,0.08
2018-11-28T16:05:18.492Z,0.17
2018-11-28T16:07:46.565Z,0.13
2018-11-28T16:10:20.427Z,0.43
2018-11-28T16:12:48.882Z,0.27
2018-11-28T16:15:22.721Z,0.17
2018-11-28T16:17:50.781Z,0.22
2018-11-28T16:20:18.843Z,0.19
2018-11-28T16:22:46.901Z,0.13
2018-11-28T16:25:14.953Z,0.16
2018-11-28T16:27:43.072Z,0.21
2018-11-28T16:30:12.514Z,0.23
2018-11-28T16:32:40.854Z,0.23
2018-11-28T16:35:11.310Z,0.21
2018-11-28T16:37:39.488Z,0.13
2018-11-28T16:40:10.898Z,0.16
2018-11-28T16:42:39.006Z,0.17
2018-11-28T16:45:17.002Z,0.25
2018-11-28T16:47:45.098Z,0.20
2018-11-28T16:50:13.961Z,0.24
2018-11-28T16:52:42.074Z,0.21
2018-11-28T16:55:13.105Z,0.18
2018-11-28T16:57:42.194Z,0.24
2018-11-28T17:00:12.566Z,0.21
2018-11-28T17:02:40.640Z,0.27
2018-11-28T17:05:11.565Z,0.22
2018-11-28T17:07:39.850Z,0.23
2018-11-28T17:10:13.434Z,0.31
2018-11-28T17:12:41.494Z,0.28
2018-11-28T17:15:13.507Z,0.27
2018-11-28T17:17:41.585Z,0.31
2018-11-28T17:20:14.670Z,0.24
2018-11-28T17:22:43.015Z,0.29
2018-11-28T17:25:27.897Z,0.27
2018-11-28T17:27:55.948Z,0.30
2018-11-28T17:30:25.093Z,0.30
2018-11-28T17:32:53.145Z,0.29
2018-11-28T17:35:21.209Z,0.27
2018-11-28T17:37:49.367Z,0.26
2018-11-28T17:40:21.458Z,0.32
2018-11-28T17:42:50.686Z,0.28
2018-11-28T17:45:19.069Z,0.32
2018-11-28T17:47:47.142Z,0.30
2018-11-28T17:50:16.322Z,0.26
2018-11-28T17:52:48.209Z,0.30
2018-11-28T17:55:17.202Z,0.31
2018-11-28T17:57:45.249Z,0.33
2018-11-28T18:00:14.582Z,0.28
2018-11-28T18:02:42.635Z,0.32
2018-11-28T18:05:11.091Z,0.34
2018-11-28T18:07:39.143Z,0.34
2018-11-28T18:10:16.320Z,0.37
2018-11-28T18:12:55.921Z,0.33
2018-11-28T18:15:24.160Z,0.30
2018-11-28T18:17:53.517Z,0.30
2018-11-28T18:20:21.614Z,0.33
2018-11-28T18:22:49.701Z,0.39
2018-11-28T18:25:17.873Z,0.38
2018-11-28T18:27:45.940Z,0.38
2018-11-28T18:30:13.971Z,0.35
2018-11-28T18:32:42.018Z,0.41
2018-11-28T18:35:10.986Z,0.48
2018-11-28T18:37:39.035Z,0.55
2018-11-28T18:40:10.102Z,0.52
2018-11-28T18:42:38.297Z,0.52
2018-11-28T18:45:11.374Z,0.53
2018-11-28T18:47:40.138Z,0.47
2018-11-28T18:50:09.569Z,0.48
2018-11-28T18:52:37.660Z,0.51
2018-11-28T18:55:08.181Z,0.57
2018-11-28T18:57:36.291Z,0.56
2018-11-28T19:00:04.909Z,0.47
2018-11-28T19:02:32.961Z,0.50
2018-11-28T19:05:01.027Z,0.58
2018-11-28T19:07:29.117Z,0.53
2018-11-28T19:09:57.170Z,0.53
2018-11-28T19:12:25.229Z,0.45
2018-11-28T19:14:53.303Z,0.48
2018-11-28T19:17:21.378Z,0.53
2018-11-28T19:19:49.436Z,0.57
2018-11-28T19:22:17.502Z,0.58
2018-11-28T19:24:45.690Z,0.52
2018-11-28T19:27:13.774Z,0.51
2018-11-28T19:29:41.850Z,0.57
2018-11-28T19:32:10.018Z,0.53
2018-11-28T19:34:38.082Z,0.54
2018-11-28T19:37:06.394Z,0.55
2018-11-28T19:39:34.458Z,0.62
2018-11-28T19:42:02.568Z,0.61
2018-11-28T19:44:30.623Z,0.63
2018-11-28T19:46:58.681Z,0.71
2018-11-28T19:49:26.745Z,0.65
2018-11-28T19:51:54.853Z,0.64
2018-11-28T19:54:22.910Z,0.64
2018-11-28T19:56:50.979Z,0.60
2018-11-28T19:59:19.067Z,0.59
2018-11-28T20:01:47.137Z,0.64
2018-11-28T20:04:15.202Z,0.60
2018-11-28T20:06:43.304Z,0.71
2018-11-28T20:09:17.206Z,0.66
2018-11-28T20:11:45.384Z,0.69
2018-11-28T20:14:13.494Z,0.69
2018-11-28T20:16:41.682Z,0.66
2018-11-28T20:19:09.783Z,0.78
2018-11-28T20:21:37.841Z,0.73
2018-11-28T20:24:06.721Z,0.74
2018-11-28T20:26:34.794Z,0.75
2018-11-28T20:29:02.846Z,0.72
2018-11-28T20:31:30.910Z,0.80
2018-11-28T20:33:59.014Z,0.80
2018-11-28T20:36:27.092Z,0.76
2018-11-28T20:38:55.577Z,0.73
2018-11-28T20:41:23.630Z,0.82
2018-11-28T20:43:52.549Z,0.74
2018-11-28T20:46:19.784Z,0.82
2018-11-28T20:48:47.870Z,0.83
2018-11-28T20:51:15.948Z,0.83
2018-11-28T20:53:44.882Z,0.81
2018-11-28T20:56:12.972Z,0.84
2018-11-28T20:58:41.044Z,0.84
2018-11-28T21:01:09.098Z,0.88
2018-11-28T21:03:37.191Z,0.89
2018-11-28T21:06:05.891Z,0.84
2018-11-28T21:08:33.957Z,0.84
2018-11-28T21:11:01.997Z,0.91
2018-11-28T21:13:30.038Z,0.85
2018-11-28T21:15:58.182Z,0.86
2018-11-28T21:18:26.272Z,0.84
2018-11-28T21:20:54.321Z,0.83
2018-11-28T21:23:22.356Z,0.90
2018-11-28T21:25:50.442Z,0.94
2018-11-28T21:28:18.566Z,0.88
2018-11-28T21:30:46.610Z,0.67
2018-11-28T21:33:15.266Z,0.67
2018-11-28T21:35:49.090Z,0.75
2018-11-28T21:38:17.137Z,0.77
2018-11-28T21:40:45.257Z,0.66
2018-11-28T21:43:13.344Z,0.60
2018-11-28T21:45:41.401Z,0.68
2018-11-28T21:48:09.484Z,0.64
2018-11-28T21:50:37.570Z,0.59
2018-11-28T21:53:07.326Z,0.64
2018-11-28T21:55:35.382Z,0.59
2018-11-28T21:58:03.457Z,0.56
2018-11-28T22:00:31.550Z,0.54
2018-11-28T22:02:59.647Z,0.57
2018-11-28T22:05:27.724Z,0.58
2018-11-28T22:07:55.782Z,0.54
2018-11-28T22:10:24.782Z,0.52
2018-11-28T22:12:53.379Z,0.57
2018-11-28T22:15:21.469Z,0.56
2018-11-28T22:17:50.564Z,0.60
2018-11-28T22:20:18.679Z,0.58
2018-11-28T22:22:46.736Z,0.58
2018-11-28T22:25:18.891Z,0.60
2018-11-28T22:27:46.949Z,0.59
2018-11-28T22:30:16.058Z,0.66
2018-11-28T22:32:44.174Z,0.63
2018-11-28T22:35:12.297Z,0.63
2018-11-28T22:37:40.338Z,0.60
2018-11-28T22:40:09.898Z,0.70
2018-11-28T22:42:37.993Z,0.69
2018-11-28T22:45:09.313Z,0.63
2018-11-28T22:47:37.378Z,0.71
2018-11-28T22:50:05.781Z,0.71
2018-11-28T22:52:33.854Z,0.77
2018-11-28T22:55:01.946Z,0.81
2018-11-28T22:57:30.008Z,0.91
2018-11-28T22:59:58.073Z,0.81
2018-11-28T23:02:58.619Z,0.84
2018-11-28T23:05:30.692Z,0.77
2018-11-28T23:07:59.801Z,0.85
2018-11-28T23:10:27.875Z,0.86
2018-11-28T23:12:55.967Z,0.86
2018-11-28T23:15:24.062Z,0.84
2018-11-28T23:17:55.162Z,0.82
2018-11-28T23:20:20.213Z,0.83
2018-11-28T23:22:48.289Z,0.90
2018-11-28T23:25:16.357Z,0.90
2018-11-28T23:27:44.407Z,0.99
2018-11-28T23:30:14.674Z,0.96
2018-11-28T23:32:42.769Z,0.91
2018-11-28T23:35:11.519Z,0.93
2018-11-28T23:37:40.493Z,0.96
2018-11-28T23:40:11.954Z,0.96
2018-11-28T23:42:40.014Z,0.99
2018-11-28T23:45:09.622Z,1.00
2018-11-28T23:47:37.701Z,0.99
2018-11-28T23:50:12.001Z,0.95
2018-11-28T23:52:40.085Z,0.95
2018-11-28T23:55:12.165Z,0.92
2018-11-28T23:57:40.237Z,0.94
